sensor_id;sensor_type;location;lat;lon;timestamp;P1;durP1;ratioP1;P2;durP2;ratioP2
50429;SDS011;36359;41.556;-8.418;2023-04-25T00:01:17;12.82;;;5.22;;
50429;SDS011;36359;41.556;-8.418;2023-04-25T00:03:44;15.75;;;6.82;;
50429;SDS011;36359;41.556;-8.418;2023-04-25T00:06:12;11.93;;;6.15;;
50429;SDS011;36359;41.556;-8.418;2023-04-25T00:08:39;15.65;;;6.70;;
50429;SDS011;36359;41.556;-8.418;2023-04-25T00:11:05;12.63;;;6.97;;
50429;SDS011;36359;41.556;-8.418;2023-04-25T00:13:31;19.67;;;9.13;;
50429;SDS011;36359;41.556;-8.418;2023-04-25T00:15:57;16.73;;;8.77;;
50429;SDS011;36359;41.556;-8.418;2023-04-25T00:18:23;12.43;;;8.82;;
50429;SDS011;36359;41.556;-8.418;2023-04-25T00:20:49;16.27;;;9.00;;
50429;SDS011;36359;41.556;-8.418;2023-04-25T00:23:17;14.07;;;8.18;;
50429;SDS011;36359;41.556;-8.418;2023-04-25T00:25:43;14.77;;;7.13;;
50429;SDS011;36359;41.556;-8.418;2023-04-25T00:28:10;14.40;;;7.45;;
50429;SDS011;36359;41.556;-8.418;2023-04-25T00:30:37;12.75;;;7.13;;
50429;SDS011;36359;41.556;-8.418;2023-04-25T00:33:03;17.25;;;7.05;;
50429;SDS011;36359;41.556;-8.418;2023-04-25T00:35:29;14.43;;;7.78;;
50429;SDS011;36359;41.556;-8.418;2023-04-25T00:37:55;13.35;;;7.88;;
50429;SDS011;36359;41.556;-8.418;2023-04-25T00:40:20;13.10;;;7.60;;
50429;SDS011;36359;41.556;-8.418;2023-04-25T00:42:47;18.48;;;8.32;;
50429;SDS011;36359;41.556;-8.418;2023-04-25T00:45:14;15.07;;;8.43;;
50429;SDS011;36359;41.556;-8.418;2023-04-25T00:47:41;18.13;;;8.68;;
50429;SDS011;36359;41.556;-8.418;2023-04-25T00:50:07;16.40;;;8.23;;
50429;SDS011;36359;41.556;-8.418;2023-04-25T00:52:33;16.30;;;8.70;;
50429;SDS011;36359;41.556;-8.418;2023-04-25T00:55:00;14.85;;;8.18;;
50429;SDS011;36359;41.556;-8.418;2023-04-25T00:57:26;14.10;;;7.30;;
50429;SDS011;36359;41.556;-8.418;2023-04-25T00:59:52;13.02;;;7.57;;
50429;SDS011;36359;41.556;-8.418;2023-04-25T01:02:19;14.52;;;7.82;;
50429;SDS011;36359;41.556;-8.418;2023-04-25T01:04:45;16.75;;;8.65;;
50429;SDS011;36359;41.556;-8.418;2023-04-25T01:07:12;16.73;;;8.82;;
50429;SDS011;36359;41.556;-8.418;2023-04-25T01:09:38;16.15;;;7.85;;
50429;SDS011;36359;41.556;-8.418;2023-04-25T01:12:04;17.15;;;10.60;;
50429;SDS011;36359;41.556;-8.418;2023-04-25T01:14:30;17.10;;;11.30;;
50429;SDS011;36359;41.556;-8.418;2023-04-25T01:16:56;22.52;;;11.60;;
50429;SDS011;36359;41.556;-8.418;2023-04-25T01:19:23;19.02;;;10.30;;
50429;SDS011;36359;41.556;-8.418;2023-04-25T01:21:50;20.98;;;10.15;;
50429;SDS011;36359;41.556;-8.418;2023-04-25T01:24:16;18.67;;;9.73;;
50429;SDS011;36359;41.556;-8.418;2023-04-25T01:26:42;18.88;;;9.57;;
50429;SDS011;36359;41.556;-8.418;2023-04-25T01:29:19;18.20;;;8.93;;
50429;SDS011;36359;41.556;-8.418;2023-04-25T01:31:46;17.17;;;8.57;;
50429;SDS011;36359;41.556;-8.418;2023-04-25T01:34:12;15.60;;;8.38;;
50429;SDS011;36359;41.556;-8.418;2023-04-25T01:36:38;15.60;;;8.25;;
50429;SDS011;36359;41.556;-8.418;2023-04-25T01:39:05;16.17;;;8.88;;
50429;SDS011;36359;41.556;-8.418;2023-04-25T01:41:31;15.27;;;8.57;;
50429;SDS011;36359;41.556;-8.418;2023-04-25T01:43:57;12.02;;;7.78;;
50429;SDS011;36359;41.556;-8.418;2023-04-25T01:49:13;17.02;;;10.50;;
50429;SDS011;36359;41.556;-8.418;2023-04-25T01:51:41;21.80;;;10.82;;
50429;SDS011;36359;41.556;-8.418;2023-04-25T01:54:08;16.23;;;10.25;;
50429;SDS011;36359;41.556;-8.418;2023-04-25T01:56:36;16.10;;;10.18;;
50429;SDS011;36359;41.556;-8.418;2023-04-25T01:59:05;19.17;;;11.53;;
50429;SDS011;36359;41.556;-8.418;2023-04-25T02:01:46;35.38;;;16.05;;
50429;SDS011;36359;41.556;-8.418;2023-04-25T02:04:20;23.17;;;14.45;;
50429;SDS011;36359;41.556;-8.418;2023-04-25T02:06:46;20.38;;;13.00;;
50429;SDS011;36359;41.556;-8.418;2023-04-25T02:09:13;17.25;;;11.60;;
50429;SDS011;36359;41.556;-8.418;2023-04-25T02:11:44;10.63;;;5.55;;
50429;SDS011;36359;41.556;-8.418;2023-04-25T02:14:24;17.33;;;11.67;;
50429;SDS011;36359;41.556;-8.418;2023-04-25T02:16:59;21.40;;;14.47;;
50429;SDS011;36359;41.556;-8.418;2023-04-25T02:19:29;21.17;;;13.50;;
50429;SDS011;36359;41.556;-8.418;2023-04-25T02:21:55;23.10;;;13.88;;
50429;SDS011;36359;41.556;-8.418;2023-04-25T02:24:22;19.15;;;12.77;;
50429;SDS011;36359;41.556;-8.418;2023-04-25T02:26:48;21.67;;;12.02;;
50429;SDS011;36359;41.556;-8.418;2023-04-25T02:29:15;16.70;;;11.27;;
50429;SDS011;36359;41.556;-8.418;2023-04-25T02:31:41;18.50;;;10.60;;
50429;SDS011;36359;41.556;-8.418;2023-04-25T02:36:52;21.25;;;10.95;;
50429;SDS011;36359;41.556;-8.418;2023-04-25T02:39:17;16.80;;;10.38;;
50429;SDS011;36359;41.556;-8.418;2023-04-25T02:44:46;16.38;;;10.82;;
50429;SDS011;36359;41.556;-8.418;2023-04-25T02:47:12;20.02;;;10.90;;
50429;SDS011;36359;41.556;-8.418;2023-04-25T02:49:38;12.45;;;6.90;;
50429;SDS011;36359;41.556;-8.418;2023-04-25T02:52:04;19.25;;;10.32;;
50429;SDS011;36359;41.556;-8.418;2023-04-25T02:54:29;18.55;;;10.23;;
50429;SDS011;36359;41.556;-8.418;2023-04-25T02:56:56;18.02;;;10.30;;
50429;SDS011;36359;41.556;-8.418;2023-04-25T02:59:27;24.13;;;12.70;;
50429;SDS011;36359;41.556;-8.418;2023-04-25T03:01:53;28.00;;;12.05;;
50429;SDS011;36359;41.556;-8.418;2023-04-25T03:04:18;23.05;;;11.10;;
50429;SDS011;36359;41.556;-8.418;2023-04-25T03:06:44;17.05;;;10.05;;
50429;SDS011;36359;41.556;-8.418;2023-04-25T03:09:10;19.85;;;10.43;;
50429;SDS011;36359;41.556;-8.418;2023-04-25T03:11:36;18.25;;;11.18;;
50429;SDS011;36359;41.556;-8.418;2023-04-25T03:14:04;20.85;;;12.02;;
50429;SDS011;36359;41.556;-8.418;2023-04-25T03:16:29;21.85;;;11.82;;
50429;SDS011;36359;41.556;-8.418;2023-04-25T03:18:56;22.92;;;12.57;;
50429;SDS011;36359;41.556;-8.418;2023-04-25T03:21:22;21.60;;;12.80;;
50429;SDS011;36359;41.556;-8.418;2023-04-25T03:23:48;16.98;;;11.60;;
50429;SDS011;36359;41.556;-8.418;2023-04-25T03:26:14;20.85;;;12.18;;
50429;SDS011;36359;41.556;-8.418;2023-04-25T03:28:43;20.10;;;12.13;;
50429;SDS011;36359;41.556;-8.418;2023-04-25T03:31:08;24.00;;;12.75;;
50429;SDS011;36359;41.556;-8.418;2023-04-25T03:33:34;23.02;;;12.98;;
50429;SDS011;36359;41.556;-8.418;2023-04-25T03:36:00;18.17;;;11.48;;
50429;SDS011;36359;41.556;-8.418;2023-04-25T03:38:27;20.23;;;12.52;;
50429;SDS011;36359;41.556;-8.418;2023-04-25T03:40:53;17.52;;;12.02;;
50429;SDS011;36359;41.556;-8.418;2023-04-25T03:46:07;20.20;;;11.85;;
50429;SDS011;36359;41.556;-8.418;2023-04-25T03:48:34;13.35;;;8.55;;
50429;SDS011;36359;41.556;-8.418;2023-04-25T03:51:00;19.35;;;11.70;;
50429;SDS011;36359;41.556;-8.418;2023-04-25T03:53:27;15.45;;;11.52;;
50429;SDS011;36359;41.556;-8.418;2023-04-25T03:56:19;21.98;;;12.13;;
50429;SDS011;36359;41.556;-8.418;2023-04-25T03:58:49;20.13;;;12.48;;
50429;SDS011;36359;41.556;-8.418;2023-04-25T04:01:17;19.92;;;11.25;;
50429;SDS011;36359;41.556;-8.418;2023-04-25T04:03:43;17.50;;;11.85;;
50429;SDS011;36359;41.556;-8.418;2023-04-25T04:06:10;22.45;;;13.05;;
50429;SDS011;36359;41.556;-8.418;2023-04-25T04:08:39;23.80;;;13.45;;
50429;SDS011;36359;41.556;-8.418;2023-04-25T04:11:05;23.67;;;13.13;;
50429;SDS011;36359;41.556;-8.418;2023-04-25T04:13:32;24.15;;;13.00;;
50429;SDS011;36359;41.556;-8.418;2023-04-25T04:15:58;15.57;;;12.23;;
50429;SDS011;36359;41.556;-8.418;2023-04-25T04:18:25;18.67;;;10.23;;
50429;SDS011;36359;41.556;-8.418;2023-04-25T04:20:51;25.27;;;13.65;;
50429;SDS011;36359;41.556;-8.418;2023-04-25T04:23:17;18.25;;;13.40;;
50429;SDS011;36359;41.556;-8.418;2023-04-25T04:25:44;19.42;;;13.43;;
50429;SDS011;36359;41.556;-8.418;2023-04-25T04:28:43;19.38;;;10.68;;
50429;SDS011;36359;41.556;-8.418;2023-04-25T04:31:32;22.40;;;13.18;;
50429;SDS011;36359;41.556;-8.418;2023-04-25T04:33:58;23.60;;;14.05;;
50429;SDS011;36359;41.556;-8.418;2023-04-25T04:36:24;22.95;;;12.38;;
50429;SDS011;36359;41.556;-8.418;2023-04-25T04:38:52;18.85;;;11.68;;
50429;SDS011;36359;41.556;-8.418;2023-04-25T04:41:32;13.95;;;11.48;;
50429;SDS011;36359;41.556;-8.418;2023-04-25T04:44:29;18.63;;;12.05;;
50429;SDS011;36359;41.556;-8.418;2023-04-25T04:47:11;21.08;;;12.48;;
50429;SDS011;36359;41.556;-8.418;2023-04-25T04:49:58;20.00;;;12.95;;
50429;SDS011;36359;41.556;-8.418;2023-04-25T04:52:58;20.35;;;12.77;;
50429;SDS011;36359;41.556;-8.418;2023-04-25T04:55:53;21.70;;;13.10;;
50429;SDS011;36359;41.556;-8.418;2023-04-25T04:58:38;20.13;;;11.07;;
50429;SDS011;36359;41.556;-8.418;2023-04-25T05:01:17;19.15;;;9.68;;
50429;SDS011;36359;41.556;-8.418;2023-04-25T05:03:56;18.20;;;10.35;;
50429;SDS011;36359;41.556;-8.418;2023-04-25T05:06:45;18.95;;;11.13;;
50429;SDS011;36359;41.556;-8.418;2023-04-25T05:09:31;17.25;;;9.95;;
50429;SDS011;36359;41.556;-8.418;2023-04-25T05:12:03;18.00;;;10.18;;
50429;SDS011;36359;41.556;-8.418;2023-04-25T05:14:49;17.30;;;10.57;;
50429;SDS011;36359;41.556;-8.418;2023-04-25T05:17:34;15.00;;;8.77;;
50429;SDS011;36359;41.556;-8.418;2023-04-25T05:20:19;13.82;;;8.60;;
50429;SDS011;36359;41.556;-8.418;2023-04-25T05:23:14;17.63;;;9.35;;
50429;SDS011;36359;41.556;-8.418;2023-04-25T05:25:50;14.95;;;8.85;;
50429;SDS011;36359;41.556;-8.418;2023-04-25T05:28:37;15.40;;;9.75;;
50429;SDS011;36359;41.556;-8.418;2023-04-25T05:31:14;14.13;;;9.88;;
50429;SDS011;36359;41.556;-8.418;2023-04-25T05:33:49;15.60;;;10.27;;
50429;SDS011;36359;41.556;-8.418;2023-04-25T05:36:15;20.05;;;10.15;;
50429;SDS011;36359;41.556;-8.418;2023-04-25T05:38:43;12.90;;;8.52;;
50429;SDS011;36359;41.556;-8.418;2023-04-25T05:41:15;16.23;;;9.13;;
50429;SDS011;36359;41.556;-8.418;2023-04-25T05:44:01;16.20;;;10.05;;
50429;SDS011;36359;41.556;-8.418;2023-04-25T05:46:40;17.50;;;9.50;;
50429;SDS011;36359;41.556;-8.418;2023-04-25T05:49:12;16.63;;;10.80;;
50429;SDS011;36359;41.556;-8.418;2023-04-25T05:52:16;16.73;;;8.98;;
50429;SDS011;36359;41.556;-8.418;2023-04-25T05:55:01;15.52;;;10.15;;
50429;SDS011;36359;41.556;-8.418;2023-04-25T05:57:29;15.20;;;9.77;;
50429;SDS011;36359;41.556;-8.418;2023-04-25T05:59:55;18.60;;;10.82;;
50429;SDS011;36359;41.556;-8.418;2023-04-25T06:02:26;16.25;;;8.38;;
50429;SDS011;36359;41.556;-8.418;2023-04-25T06:04:52;16.67;;;8.43;;
50429;SDS011;36359;41.556;-8.418;2023-04-25T06:07:18;17.20;;;9.18;;
50429;SDS011;36359;41.556;-8.418;2023-04-25T06:09:45;16.42;;;10.15;;
50429;SDS011;36359;41.556;-8.418;2023-04-25T06:12:10;13.65;;;9.88;;
50429;SDS011;36359;41.556;-8.418;2023-04-25T06:14:36;20.95;;;10.80;;
50429;SDS011;36359;41.556;-8.418;2023-04-25T06:17:02;18.95;;;9.30;;
50429;SDS011;36359;41.556;-8.418;2023-04-25T06:19:35;16.30;;;9.07;;
50429;SDS011;36359;41.556;-8.418;2023-04-25T06:22:01;17.95;;;9.98;;
50429;SDS011;36359;41.556;-8.418;2023-04-25T06:24:27;19.38;;;12.05;;
50429;SDS011;36359;41.556;-8.418;2023-04-25T06:26:54;14.95;;;9.13;;
50429;SDS011;36359;41.556;-8.418;2023-04-25T06:29:20;19.77;;;11.18;;
50429;SDS011;36359;41.556;-8.418;2023-04-25T06:31:46;19.20;;;12.20;;
50429;SDS011;36359;41.556;-8.418;2023-04-25T06:34:12;19.10;;;10.77;;
50429;SDS011;36359;41.556;-8.418;2023-04-25T06:36:40;17.60;;;10.57;;
50429;SDS011;36359;41.556;-8.418;2023-04-25T06:39:10;22.73;;;11.98;;
50429;SDS011;36359;41.556;-8.418;2023-04-25T06:41:36;16.13;;;8.07;;
50429;SDS011;36359;41.556;-8.418;2023-04-25T06:44:05;21.13;;;11.48;;
50429;SDS011;36359;41.556;-8.418;2023-04-25T06:46:37;14.73;;;7.43;;
50429;SDS011;36359;41.556;-8.418;2023-04-25T06:49:03;15.77;;;8.98;;
50429;SDS011;36359;41.556;-8.418;2023-04-25T06:51:29;19.42;;;10.88;;
50429;SDS011;36359;41.556;-8.418;2023-04-25T06:53:55;16.20;;;9.73;;
50429;SDS011;36359;41.556;-8.418;2023-04-25T06:56:28;17.48;;;9.07;;
50429;SDS011;36359;41.556;-8.418;2023-04-25T06:59:01;15.30;;;10.60;;
50429;SDS011;36359;41.556;-8.418;2023-04-25T07:01:30;11.68;;;8.13;;
50429;SDS011;36359;41.556;-8.418;2023-04-25T07:03:57;15.13;;;10.15;;
50429;SDS011;36359;41.556;-8.418;2023-04-25T07:06:23;19.27;;;10.93;;
50429;SDS011;36359;41.556;-8.418;2023-04-25T07:08:51;19.40;;;10.25;;
50429;SDS011;36359;41.556;-8.418;2023-04-25T07:11:17;17.25;;;10.88;;
50429;SDS011;36359;41.556;-8.418;2023-04-25T07:13:43;17.92;;;11.98;;
50429;SDS011;36359;41.556;-8.418;2023-04-25T07:16:08;20.90;;;11.85;;
50429;SDS011;36359;41.556;-8.418;2023-04-25T07:18:35;20.33;;;11.40;;
50429;SDS011;36359;41.556;-8.418;2023-04-25T07:21:02;18.13;;;11.52;;
50429;SDS011;36359;41.556;-8.418;2023-04-25T07:23:28;17.50;;;10.23;;
50429;SDS011;36359;41.556;-8.418;2023-04-25T07:25:57;16.27;;;11.77;;
50429;SDS011;36359;41.556;-8.418;2023-04-25T07:28:24;19.55;;;10.70;;
50429;SDS011;36359;41.556;-8.418;2023-04-25T07:30:50;20.77;;;10.75;;
50429;SDS011;36359;41.556;-8.418;2023-04-25T07:33:15;20.63;;;12.38;;
50429;SDS011;36359;41.556;-8.418;2023-04-25T07:35:42;17.92;;;9.75;;
50429;SDS011;36359;41.556;-8.418;2023-04-25T07:38:09;13.25;;;8.07;;
50429;SDS011;36359;41.556;-8.418;2023-04-25T07:40:35;16.50;;;9.10;;
50429;SDS011;36359;41.556;-8.418;2023-04-25T07:43:05;18.52;;;11.27;;
50429;SDS011;36359;41.556;-8.418;2023-04-25T07:45:37;14.77;;;8.00;;
50429;SDS011;36359;41.556;-8.418;2023-04-25T07:48:04;15.25;;;9.50;;
50429;SDS011;36359;41.556;-8.418;2023-04-25T07:50:33;13.98;;;9.27;;
50429;SDS011;36359;41.556;-8.418;2023-04-25T07:52:59;15.20;;;7.93;;
50429;SDS011;36359;41.556;-8.418;2023-04-25T07:55:31;13.38;;;8.13;;
50429;SDS011;36359;41.556;-8.418;2023-04-25T07:58:11;11.52;;;7.80;;
50429;SDS011;36359;41.556;-8.418;2023-04-25T08:03:53;12.02;;;8.02;;
50429;SDS011;36359;41.556;-8.418;2023-04-25T08:06:23;13.15;;;9.18;;
50429;SDS011;36359;41.556;-8.418;2023-04-25T08:08:58;12.20;;;7.75;;
50429;SDS011;36359;41.556;-8.418;2023-04-25T08:11:31;13.65;;;9.15;;
50429;SDS011;36359;41.556;-8.418;2023-04-25T08:13:57;14.73;;;8.05;;
50429;SDS011;36359;41.556;-8.418;2023-04-25T08:16:23;13.07;;;7.07;;
50429;SDS011;36359;41.556;-8.418;2023-04-25T08:18:50;15.48;;;6.88;;
50429;SDS011;36359;41.556;-8.418;2023-04-25T08:21:16;11.23;;;7.97;;
50429;SDS011;36359;41.556;-8.418;2023-04-25T08:23:43;13.80;;;7.45;;
50429;SDS011;36359;41.556;-8.418;2023-04-25T08:26:29;12.13;;;5.82;;
50429;SDS011;36359;41.556;-8.418;2023-04-25T08:28:56;12.45;;;6.97;;
50429;SDS011;36359;41.556;-8.418;2023-04-25T08:31:22;13.00;;;7.43;;
50429;SDS011;36359;41.556;-8.418;2023-04-25T08:33:56;10.73;;;5.75;;
50429;SDS011;36359;41.556;-8.418;2023-04-25T08:36:35;10.55;;;5.78;;
50429;SDS011;36359;41.556;-8.418;2023-04-25T08:39:01;10.23;;;6.60;;
50429;SDS011;36359;41.556;-8.418;2023-04-25T08:41:27;12.85;;;5.78;;
50429;SDS011;36359;41.556;-8.418;2023-04-25T08:43:53;8.52;;;4.43;;
50429;SDS011;36359;41.556;-8.418;2023-04-25T08:46:23;11.48;;;5.60;;
50429;SDS011;36359;41.556;-8.418;2023-04-25T08:49:24;11.77;;;5.68;;
50429;SDS011;36359;41.556;-8.418;2023-04-25T08:51:51;9.68;;;4.75;;
50429;SDS011;36359;41.556;-8.418;2023-04-25T08:54:37;8.13;;;4.32;;
50429;SDS011;36359;41.556;-8.418;2023-04-25T08:57:27;9.52;;;4.25;;
50429;SDS011;36359;41.556;-8.418;2023-04-25T08:59:53;7.72;;;3.20;;
50429;SDS011;36359;41.556;-8.418;2023-04-25T09:02:21;10.07;;;5.10;;
50429;SDS011;36359;41.556;-8.418;2023-04-25T09:05:06;10.90;;;4.68;;
50429;SDS011;36359;41.556;-8.418;2023-04-25T09:07:35;6.82;;;3.67;;
50429;SDS011;36359;41.556;-8.418;2023-04-25T09:10:00;15.43;;;4.43;;
50429;SDS011;36359;41.556;-8.418;2023-04-25T09:12:30;8.68;;;3.70;;
50429;SDS011;36359;41.556;-8.418;2023-04-25T09:15:01;8.40;;;3.33;;
50429;SDS011;36359;41.556;-8.418;2023-04-25T09:17:55;10.35;;;3.08;;
50429;SDS011;36359;41.556;-8.418;2023-04-25T09:20:22;8.48;;;2.15;;
50429;SDS011;36359;41.556;-8.418;2023-04-25T09:23:00;5.90;;;2.13;;
50429;SDS011;36359;41.556;-8.418;2023-04-25T09:25:33;7.43;;;2.97;;
50429;SDS011;36359;41.556;-8.418;2023-04-25T09:28:03;5.22;;;2.80;;
50429;SDS011;36359;41.556;-8.418;2023-04-25T09:30:31;6.03;;;2.75;;
50429;SDS011;36359;41.556;-8.418;2023-04-25T09:33:10;7.13;;;2.40;;
50429;SDS011;36359;41.556;-8.418;2023-04-25T09:35:39;4.00;;;2.17;;
50429;SDS011;36359;41.556;-8.418;2023-04-25T09:38:13;5.05;;;2.30;;
50429;SDS011;36359;41.556;-8.418;2023-04-25T09:40:55;7.30;;;2.33;;
50429;SDS011;36359;41.556;-8.418;2023-04-25T09:43:38;4.95;;;1.83;;
50429;SDS011;36359;41.556;-8.418;2023-04-25T09:46:08;5.07;;;2.08;;
50429;SDS011;36359;41.556;-8.418;2023-04-25T09:48:39;3.85;;;2.00;;
50429;SDS011;36359;41.556;-8.418;2023-04-25T09:51:06;5.47;;;1.52;;
50429;SDS011;36359;41.556;-8.418;2023-04-25T09:53:37;4.38;;;2.20;;
50429;SDS011;36359;41.556;-8.418;2023-04-25T09:56:20;5.32;;;2.38;;
50429;SDS011;36359;41.556;-8.418;2023-04-25T09:58:48;3.53;;;2.00;;
50429;SDS011;36359;41.556;-8.418;2023-04-25T10:01:18;6.00;;;2.00;;
50429;SDS011;36359;41.556;-8.418;2023-04-25T10:03:59;6.68;;;1.98;;
50429;SDS011;36359;41.556;-8.418;2023-04-25T10:06:54;4.38;;;1.20;;
50429;SDS011;36359;41.556;-8.418;2023-04-25T10:09:21;6.18;;;1.50;;
50429;SDS011;36359;41.556;-8.418;2023-04-25T10:11:50;2.60;;;1.35;;
50429;SDS011;36359;41.556;-8.418;2023-04-25T10:14:18;3.58;;;1.77;;
50429;SDS011;36359;41.556;-8.418;2023-04-25T10:16:44;2.85;;;1.42;;
50429;SDS011;36359;41.556;-8.418;2023-04-25T10:19:10;2.70;;;0.75;;
50429;SDS011;36359;41.556;-8.418;2023-04-25T10:21:40;5.90;;;1.88;;
50429;SDS011;36359;41.556;-8.418;2023-04-25T10:24:15;4.13;;;1.80;;
50429;SDS011;36359;41.556;-8.418;2023-04-25T10:26:41;3.75;;;1.85;;
50429;SDS011;36359;41.556;-8.418;2023-04-25T10:29:07;3.45;;;1.52;;
50429;SDS011;36359;41.556;-8.418;2023-04-25T10:31:37;4.28;;;1.10;;
50429;SDS011;36359;41.556;-8.418;2023-04-25T10:34:10;4.90;;;0.90;;
50429;SDS011;36359;41.556;-8.418;2023-04-25T10:36:36;6.22;;;1.77;;
50429;SDS011;36359;41.556;-8.418;2023-04-25T10:39:05;7.68;;;2.03;;
50429;SDS011;36359;41.556;-8.418;2023-04-25T10:41:46;5.93;;;1.42;;
50429;SDS011;36359;41.556;-8.418;2023-04-25T10:44:13;4.53;;;1.42;;
50429;SDS011;36359;41.556;-8.418;2023-04-25T10:46:40;6.95;;;1.80;;
50429;SDS011;36359;41.556;-8.418;2023-04-25T10:49:06;3.63;;;1.50;;
50429;SDS011;36359;41.556;-8.418;2023-04-25T10:51:58;4.38;;;1.40;;
50429;SDS011;36359;41.556;-8.418;2023-04-25T10:55:08;6.35;;;1.23;;
50429;SDS011;36359;41.556;-8.418;2023-04-25T10:57:41;5.13;;;1.45;;
50429;SDS011;36359;41.556;-8.418;2023-04-25T11:02:40;5.53;;;1.00;;
50429;SDS011;36359;41.556;-8.418;2023-04-25T11:05:08;4.57;;;1.08;;
50429;SDS011;36359;41.556;-8.418;2023-04-25T11:07:38;4.22;;;1.17;;
50429;SDS011;36359;41.556;-8.418;2023-04-25T11:10:31;5.78;;;1.70;;
50429;SDS011;36359;41.556;-8.418;2023-04-25T11:12:58;4.93;;;1.77;;
50429;SDS011;36359;41.556;-8.418;2023-04-25T11:15:25;4.78;;;1.33;;
50429;SDS011;36359;41.556;-8.418;2023-04-25T11:17:51;2.67;;;1.35;;
50429;SDS011;36359;41.556;-8.418;2023-04-25T11:22:45;5.53;;;1.35;;
50429;SDS011;36359;41.556;-8.418;2023-04-25T11:25:11;3.05;;;1.42;;
50429;SDS011;36359;41.556;-8.418;2023-04-25T11:28:00;6.72;;;3.78;;
50429;SDS011;36359;41.556;-8.418;2023-04-25T11:30:26;5.13;;;2.30;;
50429;SDS011;36359;41.556;-8.418;2023-04-25T11:32:56;5.50;;;1.75;;
50429;SDS011;36359;41.556;-8.418;2023-04-25T11:35:22;5.20;;;1.50;;
50429;SDS011;36359;41.556;-8.418;2023-04-25T11:37:48;6.95;;;2.08;;
50429;SDS011;36359;41.556;-8.418;2023-04-25T11:40:15;5.07;;;1.65;;
50429;SDS011;36359;41.556;-8.418;2023-04-25T11:42:44;2.92;;;1.33;;
50429;SDS011;36359;41.556;-8.418;2023-04-25T11:45:12;5.85;;;1.20;;
50429;SDS011;36359;41.556;-8.418;2023-04-25T11:47:39;5.35;;;1.40;;
50429;SDS011;36359;41.556;-8.418;2023-04-25T11:50:06;3.13;;;1.33;;
50429;SDS011;36359;41.556;-8.418;2023-04-25T11:52:36;3.55;;;1.52;;
50429;SDS011;36359;41.556;-8.418;2023-04-25T11:55:04;4.60;;;1.33;;
50429;SDS011;36359;41.556;-8.418;2023-04-25T11:57:39;5.50;;;1.25;;
50429;SDS011;36359;41.556;-8.418;2023-04-25T12:02:40;3.97;;;1.30;;
50429;SDS011;36359;41.556;-8.418;2023-04-25T12:05:10;5.13;;;1.60;;
50429;SDS011;36359;41.556;-8.418;2023-04-25T12:07:36;4.07;;;1.30;;
50429;SDS011;36359;41.556;-8.418;2023-04-25T12:10:13;4.28;;;1.40;;
50429;SDS011;36359;41.556;-8.418;2023-04-25T12:12:44;3.80;;;1.55;;
50429;SDS011;36359;41.556;-8.418;2023-04-25T12:17:46;5.65;;;1.90;;
50429;SDS011;36359;41.556;-8.418;2023-04-25T12:20:16;4.15;;;1.45;;
50429;SDS011;36359;41.556;-8.418;2023-04-25T12:22:45;5.85;;;1.60;;
50429;SDS011;36359;41.556;-8.418;2023-04-25T12:28:18;3.90;;;1.70;;
50429;SDS011;36359;41.556;-8.418;2023-04-25T12:31:04;3.28;;;1.27;;
50429;SDS011;36359;41.556;-8.418;2023-04-25T12:33:31;3.50;;;1.60;;
50429;SDS011;36359;41.556;-8.418;2023-04-25T12:35:59;3.42;;;1.42;;
50429;SDS011;36359;41.556;-8.418;2023-04-25T12:38:29;4.70;;;1.50;;
50429;SDS011;36359;41.556;-8.418;2023-04-25T12:40:57;5.80;;;1.95;;
50429;SDS011;36359;41.556;-8.418;2023-04-25T12:43:23;6.50;;;1.48;;
50429;SDS011;36359;41.556;-8.418;2023-04-25T12:45:50;7.70;;;1.95;;
50429;SDS011;36359;41.556;-8.418;2023-04-25T12:48:17;5.82;;;1.73;;
50429;SDS011;36359;41.556;-8.418;2023-04-25T12:50:43;5.10;;;1.80;;
50429;SDS011;36359;41.556;-8.418;2023-04-25T12:53:10;5.68;;;1.30;;
50429;SDS011;36359;41.556;-8.418;2023-04-25T12:55:36;3.88;;;1.40;;
50429;SDS011;36359;41.556;-8.418;2023-04-25T12:58:02;3.63;;;1.60;;
50429;SDS011;36359;41.556;-8.418;2023-04-25T13:00:28;3.88;;;1.23;;
50429;SDS011;36359;41.556;-8.418;2023-04-25T13:02:54;3.30;;;1.25;;
50429;SDS011;36359;41.556;-8.418;2023-04-25T13:05:20;4.75;;;1.58;;
50429;SDS011;36359;41.556;-8.418;2023-04-25T13:07:46;5.28;;;1.20;;
50429;SDS011;36359;41.556;-8.418;2023-04-25T13:10:12;4.60;;;1.30;;
50429;SDS011;36359;41.556;-8.418;2023-04-25T13:12:38;3.08;;;1.27;;
50429;SDS011;36359;41.556;-8.418;2023-04-25T13:15:03;5.07;;;1.38;;
50429;SDS011;36359;41.556;-8.418;2023-04-25T13:17:29;4.22;;;1.70;;
50429;SDS011;36359;41.556;-8.418;2023-04-25T13:19:55;4.15;;;1.67;;
50429;SDS011;36359;41.556;-8.418;2023-04-25T13:22:21;3.55;;;1.55;;
50429;SDS011;36359;41.556;-8.418;2023-04-25T13:24:46;4.25;;;1.38;;
50429;SDS011;36359;41.556;-8.418;2023-04-25T13:27:13;4.30;;;1.55;;
50429;SDS011;36359;41.556;-8.418;2023-04-25T13:29:38;5.75;;;1.90;;
50429;SDS011;36359;41.556;-8.418;2023-04-25T13:32:06;5.47;;;1.80;;
50429;SDS011;36359;41.556;-8.418;2023-04-25T13:34:32;6.00;;;2.10;;
50429;SDS011;36359;41.556;-8.418;2023-04-25T13:36:57;5.28;;;1.83;;
50429;SDS011;36359;41.556;-8.418;2023-04-25T13:39:24;5.47;;;1.77;;
50429;SDS011;36359;41.556;-8.418;2023-04-25T13:41:50;4.53;;;1.63;;
50429;SDS011;36359;41.556;-8.418;2023-04-25T13:44:15;3.90;;;2.08;;
50429;SDS011;36359;41.556;-8.418;2023-04-25T13:46:41;4.85;;;1.80;;
50429;SDS011;36359;41.556;-8.418;2023-04-25T13:49:07;4.70;;;1.90;;
50429;SDS011;36359;41.556;-8.418;2023-04-25T13:51:33;5.68;;;1.75;;
50429;SDS011;36359;41.556;-8.418;2023-04-25T13:53:58;3.35;;;1.48;;
50429;SDS011;36359;41.556;-8.418;2023-04-25T13:56:24;3.90;;;1.60;;
50429;SDS011;36359;41.556;-8.418;2023-04-25T13:58:50;7.28;;;1.98;;
50429;SDS011;36359;41.556;-8.418;2023-04-25T14:01:17;4.95;;;2.17;;
50429;SDS011;36359;41.556;-8.418;2023-04-25T14:03:43;4.68;;;2.20;;
50429;SDS011;36359;41.556;-8.418;2023-04-25T14:06:08;11.05;;;2.38;;
50429;SDS011;36359;41.556;-8.418;2023-04-25T14:08:34;4.85;;;2.00;;
50429;SDS011;36359;41.556;-8.418;2023-04-25T14:11:00;5.68;;;1.98;;
50429;SDS011;36359;41.556;-8.418;2023-04-25T14:13:26;6.00;;;2.05;;
50429;SDS011;36359;41.556;-8.418;2023-04-25T14:15:52;6.70;;;1.80;;
50429;SDS011;36359;41.556;-8.418;2023-04-25T14:18:17;5.82;;;2.10;;
50429;SDS011;36359;41.556;-8.418;2023-04-25T14:20:44;3.80;;;1.80;;
50429;SDS011;36359;41.556;-8.418;2023-04-25T14:23:29;3.92;;;2.03;;
50429;SDS011;36359;41.556;-8.418;2023-04-25T14:25:54;3.45;;;1.60;;
50429;SDS011;36359;41.556;-8.418;2023-04-25T14:28:20;6.20;;;2.40;;
50429;SDS011;36359;41.556;-8.418;2023-04-25T14:30:46;2.38;;;1.40;;
50429;SDS011;36359;41.556;-8.418;2023-04-25T14:33:12;8.13;;;2.30;;
50429;SDS011;36359;41.556;-8.418;2023-04-25T14:35:39;7.63;;;2.10;;
50429;SDS011;36359;41.556;-8.418;2023-04-25T14:38:05;4.60;;;1.80;;
50429;SDS011;36359;41.556;-8.418;2023-04-25T14:40:30;7.45;;;2.47;;
50429;SDS011;36359;41.556;-8.418;2023-04-25T14:42:56;6.15;;;2.50;;
50429;SDS011;36359;41.556;-8.418;2023-04-25T14:45:22;7.30;;;2.35;;
50429;SDS011;36359;41.556;-8.418;2023-04-25T14:47:47;9.63;;;2.60;;
50429;SDS011;36359;41.556;-8.418;2023-04-25T14:50:13;6.57;;;2.10;;
50429;SDS011;36359;41.556;-8.418;2023-04-25T14:52:40;6.15;;;2.03;;
50429;SDS011;36359;41.556;-8.418;2023-04-25T14:55:06;4.30;;;1.85;;
50429;SDS011;36359;41.556;-8.418;2023-04-25T14:57:32;6.68;;;2.08;;
50429;SDS011;36359;41.556;-8.418;2023-04-25T14:59:58;3.72;;;2.05;;
50429;SDS011;36359;41.556;-8.418;2023-04-25T15:02:24;5.05;;;2.28;;
50429;SDS011;36359;41.556;-8.418;2023-04-25T15:04:51;6.30;;;1.60;;
50429;SDS011;36359;41.556;-8.418;2023-04-25T15:07:18;3.95;;;1.70;;